Time;durP1;ratioP1;P1;durP2;ratioP2;P2;SDS_P1;SDS_P2;PMS_P1;PMS_P2;Temp;Humidity;BMP_temperature;BMP_pressure;BME280_temperature;BME280_humidity;BME280_pressure;Samples;Min_cycle;Max_cycle;Signal;HPM_P1;HPM_P2
2023/08/26 00:02:08;;;;;;;0.73;0.00;;;15.60;99.90;;;;;;5115028;28;20032;-74
2023/08/26 00:04:34;;;;;;;2.07;0.10;;;15.60;99.90;;;;;;5115030;28;20492;-74
2023/08/26 00:07:00;;;;;;;0.75;0.00;;;15.50;99.90;;;;;;5115076;28;20289;-75
2023/08/26 00:09:26;;;;;;;3.63;0.17;;;15.50;99.90;;;;;;5114997;28;20024;-75
2023/08/26 00:11:52;;;;;;;2.25;0.08;;;15.50;99.90;;;;;;5114949;28;20015;-75
2023/08/26 00:14:18;;;;;;;5.70;0.65;;;;;;;;;;5115175;28;20026;-75
2023/08/26 00:16:44;;;;;;;1.33;0.00;;;15.40;99.90;;;;;;5114851;28;20450;-75
2023/08/26 00:19:10;;;;;;;0.95;0.00;;;15.40;99.90;;;;;;5114756;28;20028;-75
2023/08/26 00:21:37;;;;;;;1.45;0.00;;;15.40;99.90;;;;;;5114884;28;20421;-74
2023/08/26 00:24:03;;;;;;;1.85;0.10;;;15.50;99.90;;;;;;5114649;28;20471;-75
2023/08/26 00:26:29;;;;;;;1.63;0.00;;;15.40;99.90;;;;;;5114487;28;20031;-75
2023/08/26 00:28:55;;;;;;;0.85;0.20;;;15.40;99.90;;;;;;5114696;28;20024;-75
2023/08/26 00:31:22;;;;;;;5.63;0.15;;;15.50;99.90;;;;;;5114569;28;20019;-75
2023/08/26 00:33:48;;;;;;;2.90;0.20;;;15.50;99.90;;;;;;5114819;28;20420;-74
2023/08/26 00:36:13;;;;;;;4.25;0.10;;;15.50;99.90;;;;;;5113393;28;20285;-75
2023/08/26 00:38:39;;;;;;;4.35;0.10;;;15.50;99.90;;;;;;5114498;28;20027;-75
2023/08/26 00:41:04;;;;;;;0.93;0.20;;;15.60;99.90;;;;;;5114937;28;20046;-75
2023/08/26 00:43:30;;;;;;;2.53;0.17;;;15.60;99.90;;;;;;5114699;28;20450;-75
2023/08/26 00:45:55;;;;;;;1.67;0.10;;;15.60;99.90;;;;;;5112896;28;20069;-75
2023/08/26 00:48:21;;;;;;;1.42;0.20;;;15.60;99.90;;;;;;5114378;28;20020;-74
2023/08/26 00:50:49;;;;;;;5.35;0.30;;;15.70;99.90;;;;;;5112928;28;20111;-75
2023/08/26 00:53:16;;;;;;;1.63;0.45;;;15.70;99.90;;;;;;5114063;28;20504;-76
2023/08/26 00:55:43;;;;;;;3.20;0.03;;;15.70;99.90;;;;;;5114059;28;20504;-75
2023/08/26 00:58:10;;;;;;;5.32;1.00;;;15.80;99.90;;;;;;5114157;28;20027;-74
2023/08/26 01:00:36;;;;;;;0.98;0.40;;;15.80;99.90;;;;;;5114116;28;20030;-74
2023/08/26 01:03:06;;;;;;;4.05;0.65;;;15.80;99.90;;;;;;5114277;28;20031;-73
2023/08/26 01:05:31;;;;;;;1.85;0.52;;;15.80;99.90;;;;;;5113910;28;20019;-75
2023/08/26 01:07:58;;;;;;;1.45;0.03;;;15.90;99.90;;;;;;5113384;28;20020;-75
2023/08/26 01:10:50;;;;;;;2.40;0.32;;;15.90;99.90;;;;;;5114341;28;20084;-75
2023/08/26 01:13:20;;;;;;;1.05;0.28;;;15.80;99.90;;;;;;5102814;28;20379;-75
2023/08/26 01:15:50;;;;;;;2.38;0.57;;;15.90;99.90;;;;;;5113836;28;20144;-75
2023/08/26 01:18:16;;;;;;;1.73;0.30;;;16.00;99.90;;;;;;5113890;28;20490;-75
2023/08/26 01:20:43;;;;;;;2.17;0.50;;;15.90;99.90;;;;;;5113901;28;20030;-75
2023/08/26 01:23:18;;;;;;;4.05;1.02;;;16.10;99.90;;;;;;5113874;28;20050;-75
2023/08/26 01:25:45;;;;;;;6.28;1.30;;;16.00;99.90;;;;;;5112363;28;20402;-74
2023/08/26 01:28:10;;;;;;;4.68;1.10;;;16.20;99.90;;;;;;5113821;28;20012;-75
2023/08/26 01:30:36;;;;;;;2.08;0.70;;;16.20;99.90;;;;;;5114296;28;20027;-75
2023/08/26 01:33:14;;;;;;;4.32;0.88;;;16.30;99.90;;;;;;5113648;28;20023;-75
2023/08/26 01:35:43;;;;;;;5.20;1.08;;;16.30;99.90;;;;;;5113826;28;20059;-75
2023/08/26 01:38:09;;;;;;;4.20;0.80;;;16.30;99.90;;;;;;5113664;28;20034;-75
2023/08/26 01:40:36;;;;;;;4.55;0.90;;;16.40;99.90;;;;;;5113590;28;20537;-75
2023/08/26 01:43:03;;;;;;;4.72;0.93;;;16.30;99.90;;;;;;5113487;28;20023;-74
2023/08/26 01:45:28;;;;;;;3.58;0.60;;;16.30;99.90;;;;;;5113397;28;20023;-74
2023/08/26 01:47:54;;;;;;;3.05;0.60;;;16.30;99.90;;;;;;5113497;28;20367;-75
2023/08/26 01:50:20;;;;;;;4.53;0.73;;;16.30;99.90;;;;;;5112326;28;20499;-74
2023/08/26 01:52:45;;;;;;;3.55;0.32;;;16.20;99.90;;;;;;5114126;28;20054;-75
2023/08/26 01:55:11;;;;;;;5.05;0.30;;;16.20;99.90;;;;;;5113391;28;20024;-75
2023/08/26 01:57:36;;;;;;;1.42;0.55;;;16.20;99.90;;;;;;5113624;28;20020;-75
2023/08/26 02:00:05;;;;;;;3.20;0.45;;;16.20;99.90;;;;;;5113454;28;20063;-75
2023/08/26 02:02:30;;;;;;;3.72;0.63;;;16.10;99.90;;;;;;5113377;28;20111;-75
2023/08/26 02:04:59;;;;;;;3.88;0.90;;;16.10;99.90;;;;;;5113376;28;20111;-75
2023/08/26 02:07:24;;;;;;;2.10;0.68;;;16.10;99.90;;;;;;5113646;28;20023;-74
2023/08/26 02:09:50;;;;;;;4.20;0.60;;;16.10;99.90;;;;;;5113960;28;20012;-74
2023/08/26 02:12:15;;;;;;;5.82;1.17;;;16.10;99.90;;;;;;5113320;28;20026;-74
2023/08/26 02:14:41;;;;;;;9.57;1.13;;;16.10;99.90;;;;;;5113823;28;20034;-75
2023/08/26 02:17:06;;;;;;;3.50;0.50;;;16.10;99.90;;;;;;5113888;28;20356;-75
2023/08/26 02:19:32;;;;;;;4.55;0.43;;;16.00;99.90;;;;;;5114701;28;20081;-75
2023/08/26 02:21:59;;;;;;;9.57;0.68;;;16.00;99.90;;;;;;5115983;28;20027;-75
2023/08/26 02:24:25;;;;;;;1.92;0.57;;;15.20;99.90;;;;;;5117353;28;20020;-74
2023/08/26 02:26:50;;;;;;;3.83;0.82;;;16.00;99.90;;;;;;5117208;28;20100;-75
2023/08/26 02:29:16;;;;;;;4.55;0.70;;;16.00;99.90;;;;;;5117001;28;20027;-74
2023/08/26 02:31:41;;;;;;;3.25;0.68;;;16.00;99.90;;;;;;5116923;28;20016;-74
2023/08/26 02:34:07;;;;;;;6.82;1.30;;;16.00;99.90;;;;;;5116750;28;20055;-74
2023/08/26 02:36:32;;;;;;;1.98;0.68;;;15.90;99.90;;;;;;5116772;28;20514;-75
2023/08/26 02:38:58;;;;;;;2.65;0.68;;;16.80;99.90;;;;;;5116709;28;20391;-74
2023/08/26 02:41:23;;;;;;;5.03;1.13;;;15.90;99.90;;;;;;5115683;28;20020;-75
2023/08/26 02:43:49;;;;;;;5.75;0.90;;;16.10;99.90;;;;;;5115370;28;20027;-74
2023/08/26 02:46:14;;;;;;;4.07;1.00;;;15.80;99.90;;;;;;5116505;28;20023;-75
2023/08/26 02:48:40;;;;;;;2.20;0.98;;;15.80;99.90;;;;;;5116612;28;20356;-75
2023/08/26 02:51:05;;;;;;;3.45;0.75;;;15.70;99.90;;;;;;5116578;28;20475;-75
2023/08/26 02:53:31;;;;;;;3.80;1.05;;;15.70;99.90;;;;;;5116541;28;20016;-75
2023/08/26 02:55:57;;;;;;;4.28;0.93;;;15.70;99.90;;;;;;5116369;28;20032;-75
2023/08/26 02:58:23;;;;;;;3.00;0.70;;;15.60;99.90;;;;;;5116420;28;20436;-75
2023/08/26 03:00:48;;;;;;;8.00;1.50;;;15.50;99.90;;;;;;5116355;28;20032;-74
2023/08/26 03:03:14;;;;;;;2.58;1.00;;;15.50;99.90;;;;;;5116262;28;20031;-74
2023/08/26 03:05:40;;;;;;;4.10;0.88;;;15.50;99.90;;;;;;5116053;28;20413;-74
2023/08/26 03:08:06;;;;;;;4.70;1.40;;;15.40;99.90;;;;;;5116219;28;20070;-74
2023/08/26 03:10:32;;;;;;;3.63;0.82;;;15.40;99.90;;;;;;5114812;28;20085;-74
2023/08/26 03:12:58;;;;;;;6.60;1.70;;;15.40;99.90;;;;;;5116596;28;20024;-74
2023/08/26 03:15:27;;;;;;;7.32;0.93;;;15.30;99.90;;;;;;5115969;28;20051;-74
2023/08/26 03:17:53;;;;;;;5.53;1.45;;;15.30;99.90;;;;;;5116046;28;20020;-74
2023/08/26 03:20:19;;;;;;;9.27;1.58;;;15.40;99.90;;;;;;5114690;28;20020;-74
2023/08/26 03:22:45;;;;;;;8.52;1.55;;;15.40;99.90;;;;;;5115912;28;20031;-74
2023/08/26 03:25:12;;;;;;;6.88;1.92;;;15.40;99.90;;;;;;5114532;28;20137;-74
2023/08/26 03:27:37;;;;;;;5.05;0.90;;;15.40;99.90;;;;;;5115823;28;20019;-74
2023/08/26 03:30:03;;;;;;;7.40;1.13;;;15.40;99.90;;;;;;5115201;28;20016;-74
2023/08/26 03:32:29;;;;;;;7.78;1.35;;;15.30;99.90;;;;;;5116404;28;20019;-75
2023/08/26 03:34:54;;;;;;;2.72;1.08;;;15.40;99.90;;;;;;5115866;28;20024;-74
2023/08/26 03:37:20;;;;;;;5.43;0.98;;;15.30;99.90;;;;;;5114804;28;20049;-76
2023/08/26 03:39:46;;;;;;;3.15;1.05;;;15.30;99.90;;;;;;5115629;28;20486;-77
2023/08/26 03:42:11;;;;;;;4.15;1.05;;;15.40;99.90;;;;;;5115430;28;20036;-76
2023/08/26 03:44:37;;;;;;;3.40;0.95;;;15.30;99.90;;;;;;5115706;28;20483;-76
2023/08/26 03:47:03;;;;;;;2.10;0.77;;;15.40;99.90;;;;;;5115314;28;20024;-76
2023/08/26 03:49:28;;;;;;;3.35;0.65;;;15.30;99.90;;;;;;5115441;28;20020;-76
2023/08/26 03:51:54;;;;;;;1.98;0.60;;;15.70;99.90;;;;;;5115245;28;20051;-77
2023/08/26 03:54:20;;;;;;;8.70;1.55;;;15.30;99.90;;;;;;5115264;28;20483;-76
2023/08/26 03:56:46;;;;;;;4.43;0.65;;;15.30;99.90;;;;;;5115452;28;20012;-77
2023/08/26 03:59:11;;;;;;;3.38;0.63;;;15.40;99.90;;;;;;5114985;28;20035;-76
2023/08/26 04:01:37;;;;;;;5.10;0.93;;;15.20;99.90;;;;;;5115052;28;20020;-76
2023/08/26 04:04:02;;;;;;;1.55;0.60;;;15.20;99.90;;;;;;5114829;28;20031;-77
2023/08/26 04:06:28;;;;;;;3.30;0.65;;;15.20;99.90;;;;;;5114780;28;20508;-77
2023/08/26 04:08:53;;;;;;;2.53;1.25;;;15.20;99.90;;;;;;5115207;28;20031;-76
2023/08/26 04:11:19;;;;;;;4.03;0.63;;;15.20;99.90;;;;;;5114813;28;20384;-76
2023/08/26 04:13:47;;;;;;;5.60;0.63;;;15.20;99.90;;;;;;5113591;28;20062;-76
2023/08/26 04:16:15;;;;;;;4.97;1.48;;;15.10;99.90;;;;;;5114677;28;20038;-76
2023/08/26 04:18:42;;;;;;;3.15;0.60;;;15.10;99.90;;;;;;5114624;28;20098;-76
2023/08/26 04:21:08;;;;;;;8.27;0.70;;;15.10;99.90;;;;;;5114661;28;20028;-76
2023/08/26 04:23:34;;;;;;;3.10;1.25;;;15.10;99.90;;;;;;5113374;28;20027;-76
2023/08/26 04:26:00;;;;;;;3.42;1.10;;;15.10;99.90;;;;;;5114281;28;20440;-76
2023/08/26 04:28:26;;;;;;;5.05;0.93;;;15.00;99.90;;;;;;5114496;28;20023;-76
2023/08/26 04:30:52;;;;;;;7.53;1.17;;;15.00;99.90;;;;;;5112800;28;20028;-76
2023/08/26 04:33:18;;;;;;;8.02;0.70;;;15.00;99.90;;;;;;5114238;28;20156;-76
2023/08/26 04:35:44;;;;;;;5.32;1.15;;;15.00;99.90;;;;;;5113112;28;20114;-76
2023/08/26 04:38:09;;;;;;;20.15;1.77;;;15.00;99.90;;;;;;5114233;28;20108;-76
2023/08/26 04:40:35;;;;;;;7.15;1.63;;;15.00;99.90;;;;;;5114364;28;20047;-76
2023/08/26 04:43:03;;;;;;;1.80;0.90;;;15.00;99.90;;;;;;5112025;28;20185;-76
2023/08/26 04:45:29;;;;;;;9.38;0.70;;;14.90;99.90;;;;;;5114092;28;20379;-76
2023/08/26 04:47:54;;;;;;;6.20;0.55;;;15.30;99.90;;;;;;5114213;28;20020;-76
2023/08/26 04:50:20;;;;;;;3.05;0.45;;;15.00;99.90;;;;;;5113993;28;20081;-76
2023/08/26 04:52:46;;;;;;;3.22;1.08;;;14.90;99.90;;;;;;5114525;28;20359;-77
2023/08/26 04:55:11;;;;;;;3.95;0.82;;;14.90;99.90;;;;;;5114171;28;20032;-76
2023/08/26 04:57:37;;;;;;;9.63;1.17;;;14.90;99.90;;;;;;5112806;28;20064;-76
2023/08/26 05:00:10;;;;;;;4.78;0.65;;;14.90;99.90;;;;;;5113938;28;20394;-76
2023/08/26 05:02:38;;;;;;;2.30;1.42;;;14.90;99.90;;;;;;5113874;28;20034;-76
2023/08/26 05:05:04;;;;;;;5.38;1.20;;;14.90;99.90;;;;;;5113736;28;20084;-77
2023/08/26 05:07:31;;;;;;;11.43;1.00;;;14.80;99.90;;;;;;5113959;28;20019;-76
2023/08/26 05:09:56;;;;;;;4.40;0.77;;;14.80;99.90;;;;;;5113799;28;20416;-76
2023/08/26 05:12:22;;;;;;;5.30;0.60;;;15.10;99.90;;;;;;5113920;28;20043;-77
2023/08/26 05:14:48;;;;;;;3.08;1.08;;;14.70;99.90;;;;;;5112470;28;20030;-77
2023/08/26 05:17:13;;;;;;;7.45;1.48;;;14.70;99.90;;;;;;5113815;28;20469;-77
2023/08/26 05:19:39;;;;;;;2.88;0.60;;;14.70;99.90;;;;;;5113826;28;20372;-77
2023/08/26 05:22:04;;;;;;;6.55;1.30;;;14.60;99.90;;;;;;5095416;28;20031;-77
2023/08/26 05:24:30;;;;;;;5.85;1.50;;;14.60;99.90;;;;;;5113433;28;20047;-77
2023/08/26 05:26:57;;;;;;;3.00;1.13;;;14.60;99.90;;;;;;5113681;28;20099;-77
2023/08/26 05:29:22;;;;;;;4.63;0.80;;;14.60;99.90;;;;;;5113733;28;20023;-77
2023/08/26 05:31:48;;;;;;;4.03;0.70;;;14.50;99.90;;;;;;5113790;28;20098;-77
2023/08/26 05:34:13;;;;;;;8.57;1.55;;;14.50;99.90;;;;;;5113365;28;20503;-77
2023/08/26 05:36:39;;;;;;;3.88;0.65;;;14.60;99.90;;;;;;5095378;28;20041;-76
2023/08/26 05:39:04;;;;;;;6.18;0.63;;;14.60;99.90;;;;;;5113386;28;20111;-76
2023/08/26 05:41:30;;;;;;;8.07;1.48;;;14.70;99.90;;;;;;5113342;28;20382;-76
2023/08/26 05:43:56;;;;;;;3.08;0.50;;;14.70;99.90;;;;;;5113425;28;20039;-76
2023/08/26 05:46:21;;;;;;;6.43;0.90;;;14.80;99.90;;;;;;5113422;28;20470;-77
2023/08/26 05:48:47;;;;;;;3.65;0.77;;;14.80;99.90;;;;;;5095175;28;20108;-76
2023/08/26 05:51:12;;;;;;;8.98;1.85;;;14.90;99.90;;;;;;5113736;28;20023;-76
2023/08/26 05:53:38;;;;;;;6.10;0.55;;;14.90;99.90;;;;;;5114422;28;20080;-77
2023/08/26 05:56:03;;;;;;;6.00;0.93;;;15.00;99.90;;;;;;5117653;28;20507;-77
2023/08/26 05:58:29;;;;;;;4.75;0.85;;;15.00;99.90;;;;;;5099243;28;20037;-77
2023/08/26 06:00:54;;;;;;;4.20;1.27;;;15.10;99.90;;;;;;5117858;28;20123;-77
2023/08/26 06:03:20;;;;;;;2.70;0.90;;;15.20;99.90;;;;;;5117520;28;20423;-77
2023/08/26 06:05:46;;;;;;;5.18;1.02;;;15.20;99.90;;;;;;5099114;28;20099;-77
2023/08/26 06:08:12;;;;;;;7.10;1.08;;;15.20;99.90;;;;;;5117207;28;20028;-77
2023/08/26 06:10:37;;;;;;;2.80;0.88;;;15.30;99.90;;;;;;5117402;28;20023;-77
2023/08/26 06:13:03;;;;;;;11.07;0.88;;;15.20;99.90;;;;;;5098767;28;20064;-77
2023/08/26 06:15:28;;;;;;;3.60;0.65;;;15.30;99.90;;;;;;5098962;28;20024;-77
2023/08/26 06:17:54;;;;;;;4.50;1.20;;;15.30;99.90;;;;;;5098877;28;20031;-77
2023/08/26 06:20:19;;;;;;;4.40;0.60;;;15.50;99.90;;;;;;5117239;28;20035;-77
2023/08/26 06:22:45;;;;;;;2.05;0.85;;;15.40;99.90;;;;;;5117202;28;20020;-77
2023/08/26 06:25:11;;;;;;;11.73;1.40;;;15.50;99.90;;;;;;5116838;28;20068;-77
2023/08/26 06:27:37;;;;;;;5.45;1.33;;;15.60;99.90;;;;;;5117029;28;20035;-77
2023/08/26 06:30:03;;;;;;;2.97;0.73;;;15.60;99.90;;;;;;5117024;28;20024;-77
2023/08/26 06:32:30;;;;;;;5.63;1.55;;;15.60;99.90;;;;;;5117116;28;20128;-77
2023/08/26 06:34:56;;;;;;;2.67;0.60;;;15.70;99.90;;;;;;5117279;28;20073;-77
2023/08/26 06:37:21;;;;;;;4.35;0.55;;;15.70;99.90;;;;;;5116983;28;20429;-76
2023/08/26 06:39:47;;;;;;;4.43;0.85;;;15.80;99.90;;;;;;5098424;28;20073;-78
2023/08/26 06:42:14;;;;;;;4.95;1.05;;;15.90;99.90;;;;;;5116563;28;20031;-75
2023/08/26 06:44:40;;;;;;;6.00;1.05;;;15.90;99.90;;;;;;5116594;28;20043;-77
2023/08/26 06:47:08;;;;;;;5.55;1.50;;;16.00;99.90;;;;;;5117231;28;20062;-77
2023/08/26 06:49:33;;;;;;;3.28;0.77;;;16.00;99.90;;;;;;5116884;28;20023;-77
2023/08/26 06:51:59;;;;;;;1.95;0.95;;;16.00;99.90;;;;;;5116750;28;20034;-77
2023/08/26 06:54:24;;;;;;;5.10;0.68;;;16.10;99.90;;;;;;5098372;28;20046;-77
2023/08/26 06:56:50;;;;;;;7.32;0.93;;;16.10;99.90;;;;;;5116231;28;20061;-76
2023/08/26 06:59:16;;;;;;;5.32;1.23;;;16.20;99.90;;;;;;5116291;28;20020;-75
2023/08/26 07:01:41;;;;;;;5.60;1.27;;;16.30;99.90;;;;;;5116464;28;20023;-77
2023/08/26 07:04:08;;;;;;;7.13;1.75;;;16.40;99.90;;;;;;5116021;28;20027;-77
2023/08/26 07:06:35;;;;;;;5.88;1.13;;;16.50;99.90;;;;;;5115186;28;20020;-76
2023/08/26 07:09:01;;;;;;;4.00;0.90;;;16.60;99.90;;;;;;5116085;28;20020;-76
2023/08/26 07:11:26;;;;;;;2.25;0.95;;;16.60;99.90;;;;;;5116002;28;20030;-76
2023/08/26 07:13:52;;;;;;;2.03;0.52;;;16.70;99.90;;;;;;5116094;28;20028;-76
2023/08/26 07:16:17;;;;;;;3.90;0.95;;;16.70;99.90;;;;;;5097617;28;20065;-76
2023/08/26 07:18:43;;;;;;;7.53;1.15;;;16.80;99.90;;;;;;5116080;28;20509;-76
2023/08/26 07:21:08;;;;;;;4.80;0.73;;;16.90;99.90;;;;;;5116152;28;20030;-76
2023/08/26 07:23:34;;;;;;;15.77;2.13;;;16.80;99.90;;;;;;5115815;28;20028;-76
2023/08/26 07:26:01;;;;;;;5.53;1.05;;;16.80;99.90;;;;;;5097061;28;20111;-76
2023/08/26 07:28:26;;;;;;;3.70;0.60;;;17.10;99.90;;;;;;5115745;28;20016;-75
2023/08/26 07:30:53;;;;;;;4.53;1.10;;;17.00;99.90;;;;;;5115660;28;20026;-76
2023/08/26 07:33:18;;;;;;;5.38;0.82;;;17.10;99.90;;;;;;5115660;28;20386;-75
2023/08/26 07:35:44;;;;;;;7.70;0.73;;;17.10;99.90;;;;;;5097328;28;20114;-76
2023/08/26 07:38:10;;;;;;;5.35;0.90;;;17.20;99.90;;;;;;5115415;28;20026;-76
2023/08/26 07:40:36;;;;;;;2.58;0.68;;;17.20;99.90;;;;;;5115343;28;20364;-75
2023/08/26 07:43:03;;;;;;;5.25;0.55;;;17.20;99.90;;;;;;5115488;28;20073;-75
2023/08/26 07:45:29;;;;;;;3.58;0.50;;;17.20;99.90;;;;;;5115348;28;20119;-73
2023/08/26 07:47:54;;;;;;;7.65;0.68;;;17.20;99.90;;;;;;5115489;28;20531;-74
2023/08/26 07:50:20;;;;;;;5.60;0.60;;;17.30;99.90;;;;;;5115330;28;20024;-73
2023/08/26 07:52:45;;;;;;;4.13;0.55;;;17.40;99.90;;;;;;5115392;28;20023;-74
2023/08/26 07:55:11;;;;;;;2.20;0.60;;;17.40;99.90;;;;;;5096939;28;20024;-74
2023/08/26 07:57:37;;;;;;;1.67;0.43;;;17.40;99.90;;;;;;5115237;28;20542;-73
2023/08/26 08:00:03;;;;;;;2.45;0.63;;;17.50;99.90;;;;;;5115794;28;20027;-74
2023/08/26 08:02:29;;;;;;;3.22;0.68;;;17.50;99.90;;;;;;5114951;28;20061;-74
2023/08/26 08:04:55;;;;;;;5.47;0.98;;;17.60;99.90;;;;;;5114991;28;20042;-75
2023/08/26 08:07:20;;;;;;;5.22;1.20;;;17.60;99.90;;;;;;5096758;28;20016;-75
2023/08/26 08:09:46;;;;;;;3.88;1.00;;;17.60;99.90;;;;;;5115036;28;20077;-74
2023/08/26 08:12:14;;;;;;;3.00;0.77;;;17.80;99.90;;;;;;5115031;28;20015;-74
2023/08/26 08:14:40;;;;;;;3.80;0.50;;;18.00;99.90;;;;;;5114906;28;20064;-74
2023/08/26 08:17:06;;;;;;;1.38;0.30;;;18.20;99.90;;;;;;5114788;28;20028;-74
2023/08/26 08:19:36;;;;;;;2.88;0.60;;;18.40;99.90;;;;;;5114898;28;20024;-74
2023/08/26 08:22:02;;;;;;;1.92;0.55;;;18.50;99.90;;;;;;5096568;28;20536;-73
2023/08/26 08:24:27;;;;;;;3.28;0.82;;;18.80;99.90;;;;;;5096463;28;20019;-74
2023/08/26 08:26:53;;;;;;;2.05;1.00;;;18.70;99.90;;;;;;5114669;28;20501;-73
2023/08/26 08:29:18;;;;;;;2.13;0.68;;;18.60;99.90;;;;;;5114288;28;20023;-74
2023/08/26 08:31:44;;;;;;;1.92;0.30;;;18.70;99.90;;;;;;5114610;28;20023;-74
2023/08/26 08:34:10;;;;;;;3.03;0.30;;;18.70;99.90;;;;;;5114482;28;20024;-74
2023/08/26 08:36:35;;;;;;;1.85;0.20;;;18.70;99.90;;;;;;5114482;28;20028;-73
2023/08/26 08:39:01;;;;;;;3.60;0.52;;;18.80;99.90;;;;;;5096205;28;20051;-73
2023/08/26 08:41:29;;;;;;;1.10;0.20;;;18.90;99.90;;;;;;5114672;28;20512;-77
2023/08/26 08:44:02;;;;;;;1.88;0.10;;;18.90;99.90;;;;;;5097796;28;20046;-77
2023/08/26 08:46:28;;;;;;;1.55;0.40;;;19.00;99.90;;;;;;5116530;28;20024;-79
2023/08/26 08:48:54;;;;;;;3.08;0.20;;;19.10;99.90;;;;;;5115161;28;20042;-75
2023/08/26 08:51:21;;;;;;;1.33;0.10;;;19.30;99.90;;;;;;5114225;28;20448;-76
2023/08/26 08:53:47;;;;;;;2.95;0.65;;;19.40;99.90;;;;;;5114239;28;20019;-75
2023/08/26 08:56:17;;;;;;;1.08;0.25;;;19.60;99.90;;;;;;5113936;28;20027;-75
2023/08/26 08:58:47;;;;;;;3.45;0.10;;;19.70;99.90;;;;;;5095863;28;20080;-74
2023/08/26 09:01:15;;;;;;;2.55;0.10;;;19.60;99.90;;;;;;5113889;28;20483;-75
2023/08/26 09:03:40;;;;;;;1.10;0.20;;;19.50;99.90;;;;;;5114301;28;20080;-78
2023/08/26 09:06:07;;;;;;;2.40;0.63;;;19.30;99.90;;;;;;5114387;28;20364;-74
2023/08/26 09:08:32;;;;;;;1.92;0.40;;;19.30;99.90;;;;;;5095673;28;20050;-74
2023/08/26 09:10:58;;;;;;;2.35;0.57;;;19.40;99.90;;;;;;5113871;28;20093;-77
2023/08/26 09:13:23;;;;;;;0.75;0.10;;;19.50;99.90;;;;;;5097177;28;20032;-75
2023/08/26 09:15:50;;;;;;;3.08;0.30;;;19.60;99.90;;;;;;5096900;28;20444;-74
2023/08/26 09:18:18;;;;;;;1.65;0.10;;;19.60;99.90;;;;;;5113715;28;20080;-74
2023/08/26 09:20:46;;;;;;;2.93;0.37;;;20.20;99.90;;;;;;5095675;28;20028;-74
2023/08/26 09:23:12;;;;;;;1.27;0.20;;;19.50;99.90;;;;;;5095631;28;20630;-73
2023/08/26 09:25:38;;;;;;;0.38;0.17;;;19.30;99.90;;;;;;5095433;28;20019;-74
2023/08/26 09:28:04;;;;;;;0.32;0.10;;;19.00;99.90;;;;;;5095078;28;20023;-74
2023/08/26 09:30:30;;;;;;;0.65;0.35;;;18.90;99.90;;;;;;5114214;28;20095;-75
2023/08/26 09:32:56;;;;;;;0.73;0.10;;;18.90;99.90;;;;;;5113621;28;20024;-75
2023/08/26 09:35:22;;;;;;;0.30;0.30;;;19.00;99.90;;;;;;5113545;28;20147;-75
2023/08/26 09:37:56;;;;;;;1.75;0.65;;;19.10;99.90;;;;;;5113727;28;20051;-75
2023/08/26 09:40:21;;;;;;;1.63;0.63;;;19.10;99.90;;;;;;5095277;28;20020;-75
2023/08/26 09:42:47;;;;;;;1.02;0.50;;;19.20;99.90;;;;;;5113962;28;20423;-75
2023/08/26 09:45:17;;;;;;;0.40;0.20;;;19.20;99.90;;;;;;5113462;28;20023;-75
2023/08/26 09:47:46;;;;;;;0.22;0.20;;;19.20;99.90;;;;;;5113713;28;20475;-75
2023/08/26 09:50:12;;;;;;;1.80;0.40;;;19.30;99.90;;;;;;5113325;28;20102;-75
2023/08/26 09:52:42;;;;;;;2.08;0.50;;;19.30;99.90;;;;;;5113876;28;20063;-75
2023/08/26 09:55:09;;;;;;;1.15;0.22;;;19.40;99.90;;;;;;5113397;28;20020;-75
2023/08/26 09:57:35;;;;;;;2.03;0.47;;;19.60;99.90;;;;;;5095063;28;20094;-76
2023/08/26 10:00:00;;;;;;;2.75;0.25;;;19.50;99.90;;;;;;5113338;28;20045;-75
2023/08/26 10:02:28;;;;;;;1.17;0.40;;;19.40;99.90;;;;;;5113301;28;20030;-75
2023/08/26 10:05:05;;;;;;;0.67;0.27;;;19.30;99.90;;;;;;5113300;28;20027;-75
2023/08/26 10:07:31;;;;;;;4.93;0.95;;;19.30;99.90;;;;;;5113446;28;20055;-74
2023/08/26 10:10:21;;;;;;;1.13;0.20;;;19.50;99.90;;;;;;5113207;28;20068;-75
2023/08/26 10:12:49;;;;;;;0.85;0.68;;;19.70;99.90;;;;;;5113325;28;20069;-75
2023/08/26 10:15:18;;;;;;;1.05;0.38;;;19.70;99.90;;;;;;5113219;28;20026;-75
2023/08/26 10:17:44;;;;;;;;;;;19.70;99.90;;;;;;5095414;28;20115;-75
2023/08/26 10:20:11;;;;;;;1.17;0.20;;;19.60;99.90;;;;;;5094797;28;19903;-75
2023/08/26 10:22:37;;;;;;;1.85;0.50;;;19.50;99.90;;;;;;5113253;28;20028;-75
2023/08/26 10:25:05;;;;;;;1.10;0.20;;;19.40;99.90;;;;;;5113047;28;20027;-74
2023/08/26 10:27:31;;;;;;;0.47;0.00;;;19.30;99.90;;;;;;5113290;28;20027;-75
2023/08/26 10:29:59;;;;;;;2.40;0.20;;;19.20;99.90;;;;;;5113117;28;20381;-75
2023/08/26 10:32:27;;;;;;;1.77;0.15;;;19.10;99.90;;;;;;5113169;28;20371;-75
2023/08/26 10:34:55;;;;;;;4.90;0.55;;;19.10;99.90;;;;;;5094712;28;20016;-75
2023/08/26 10:37:32;;;;;;;1.80;0.38;;;19.10;99.90;;;;;;5094836;28;20016;-74
2023/08/26 10:40:08;;;;;;;1.55;0.20;;;19.40;99.90;;;;;;5113127;28;20533;-74
2023/08/26 10:42:36;;;;;;;0.77;0.13;;;19.80;99.90;;;;;;5117153;28;20501;-74
2023/08/26 10:45:02;;;;;;;0.32;0.00;;;20.20;99.90;;;;;;5116544;28;20023;-74
2023/08/26 10:47:36;;;;;;;3.55;0.00;;;20.30;99.90;;;;;;5116722;28;20027;-77
2023/08/26 10:50:14;;;;;;;1.45;0.00;;;20.40;99.90;;;;;;5117757;28;20008;-76
2023/08/26 10:52:42;;;;;;;0.63;0.00;;;20.50;99.90;;;;;;5116670;28;20023;-74
2023/08/26 10:55:34;;;;;;;0.35;0.00;;;20.70;99.90;;;;;;5116505;28;20015;-75
2023/08/26 10:58:19;;;;;;;0.90;0.10;;;21.00;99.90;;;;;;5111778;28;20035;-75
2023/08/26 11:00:50;;;;;;;2.40;0.43;;;21.30;99.90;;;;;;5116609;28;20501;-75
2023/08/26 11:03:21;;;;;;;1.23;0.15;;;21.50;99.90;;;;;;5116314;28;20403;-75
2023/08/26 11:06:00;;;;;;;2.13;0.05;;;21.70;99.90;;;;;;5116256;28;20111;-77
2023/08/26 11:08:25;;;;;;;0.90;0.10;;;21.90;99.90;;;;;;5116107;28;20398;-76
2023/08/26 11:10:51;;;;;;;1.48;0.00;;;22.10;99.90;;;;;;5116144;28;20030;-76
2023/08/26 11:13:17;;;;;;;2.00;0.03;;;22.20;99.90;;;;;;5116123;28;20035;-74
2023/08/26 11:15:43;;;;;;;0.00;0.00;;;22.20;99.90;;;;;;5116113;28;20031;-76
2023/08/26 11:18:10;;;;;;;0.68;0.00;;;22.40;99.90;;;;;;5116063;28;20024;-74
2023/08/26 11:20:37;;;;;;;0.52;0.00;;;22.70;99.90;;;;;;5115947;28;20023;-75
2023/08/26 11:23:05;;;;;;;1.55;0.00;;;22.70;99.90;;;;;;5116068;28;20069;-76
2023/08/26 11:25:32;;;;;;;2.28;0.00;;;22.80;99.90;;;;;;5097375;28;20050;-76
2023/08/26 11:28:05;;;;;;;1.85;0.00;;;23.10;99.90;;;;;;5115564;28;20031;-76
2023/08/26 11:30:45;;;;;;;1.48;0.20;;;23.30;99.90;;;;;;5115763;28;20024;-75
2023/08/26 11:33:16;;;;;;;1.15;0.22;;;23.60;99.90;;;;;;5115950;28;20024;-75
2023/08/26 11:35:43;;;;;;;2.63;0.00;;;23.60;99.90;;;;;;5097528;28;20403;-75
2023/08/26 11:38:09;;;;;;;0.45;0.00;;;23.70;99.90;;;;;;5115313;28;20020;-75
2023/08/26 11:40:35;;;;;;;3.42;0.40;;;23.80;99.90;;;;;;5115510;28;20039;-74
2023/08/26 11:43:11;;;;;;;1.85;0.38;;;23.90;99.90;;;;;;5115385;28;20024;-76
2023/08/26 11:45:41;;;;;;;0.38;0.00;;;23.70;99.90;;;;;;5115423;28;20020;-75
2023/08/26 11:48:10;;;;;;;1.45;0.35;;;23.40;99.90;;;;;;5115359;28;20110;-75
2023/08/26 11:50:37;;;;;;;1.55;0.20;;;22.80;99.90;;;;;;5115652;28;20051;-75
2023/08/26 11:53:03;;;;;;;0.93;0.03;;;22.40;99.90;;;;;;5114991;28;20487;-75
2023/08/26 11:55:30;;;;;;;2.63;0.13;;;21.90;99.90;;;;;;5115232;28;20084;-76
2023/08/26 11:57:57;;;;;;;5.22;0.10;;;21.50;99.90;;;;;;5115218;28;20035;-76
2023/08/26 12:00:23;;;;;;;1.50;0.05;;;21.20;99.90;;;;;;5115290;28;20506;-76
2023/08/26 12:02:51;;;;;;;1.67;0.17;;;20.90;99.90;;;;;;5115126;28;20168;-76
2023/08/26 12:05:18;;;;;;;2.10;0.10;;;20.60;99.90;;;;;;5096653;28;20035;-76
2023/08/26 12:07:51;;;;;;;2.38;0.00;;;20.30;99.90;;;;;;5115096;28;20424;-76
2023/08/26 12:10:18;;;;;;;12.23;0.63;;;20.10;99.90;;;;;;5096734;28;20085;-76
2023/08/26 12:12:46;;;;;;;0.75;0.10;;;20.00;99.90;;;;;;5114829;28;20030;-76
2023/08/26 12:15:16;;;;;;;9.10;0.30;;;19.90;99.90;;;;;;5114935;28;20479;-76
2023/08/26 12:17:44;;;;;;;0.95;0.28;;;19.80;99.90;;;;;;5115127;28;20039;-75
2023/08/26 12:20:26;;;;;;;2.53;0.47;;;19.90;99.90;;;;;;5115015;28;20023;-74
2023/08/26 12:22:53;;;;;;;1.85;0.40;;;20.30;99.90;;;;;;5114677;28;20020;-76
2023/08/26 12:25:23;;;;;;;2.33;0.35;;;20.80;99.90;;;;;;5114436;28;20024;-76
2023/08/26 12:27:48;;;;;;;0.60;0.20;;;21.10;99.90;;;;;;5114576;28;20027;-74
2023/08/26 12:30:14;;;;;;;1.38;0.17;;;21.20;99.90;;;;;;5114760;28;20072;-74
2023/08/26 12:32:39;;;;;;;2.85;0.28;;;20.90;99.90;;;;;;5114716;28;20047;-74
2023/08/26 12:35:06;;;;;;;1.92;0.28;;;20.80;99.90;;;;;;5114876;28;20030;-73
2023/08/26 12:37:32;;;;;;;0.65;0.32;;;20.80;99.90;;;;;;5114599;28;20115;-73
2023/08/26 12:39:59;;;;;;;1.15;0.50;;;20.80;99.90;;;;;;5114366;28;20113;-74
2023/08/26 12:42:25;;;;;;;0.93;0.20;;;20.90;99.90;;;;;;5114485;28;20030;-74
2023/08/26 12:44:50;;;;;;;3.50;0.50;;;21.00;99.90;;;;;;5114442;28;20024;-73
2023/08/26 12:47:16;;;;;;;1.85;0.15;;;21.10;99.90;;;;;;5114536;28;20024;-75